Terminal Aerodrome Forecast
Issued by NWS

Home | Current Version | Previous Version | Text Only | Print | Product List | Glossary On
Versions: 1 2 3 4 5 6 7 8 9 10 11 12 13 14
421
FTUS43 KOAX 091756
TAFBFF
TAF
KBFF 091756Z 0918/1018 05005KT P6SM SCT120
     FM100400 08005KT P6SM OVC020
     FM101000 10005KT P6SM OVC070=

USA.gov is the U.S. government's official web portal to all federal, state and local government web resources and services.